Saint Paul, MN

1:45 AM CDT on August 30, 2016 (GMT -0500)
Maplecrest - Third Acre Wood | | Change Station

Elev 909 ft 45.01 °N, 93.07 °W | Updated 1 second ago

Light Thunderstorms and Rain
Light Thunderstorm Rain
69.1 °F
Feels Like 69.1 °F
N
0.0
Wind Variable Wind from NE
Gusts 0.0 mph

Today
High -- | Low -- °F
--% Chance of Precip.
Yesterday
High -- | Low -- °F
Precip. -- in
Pressure 30.23 in
Visibility 7.0 miles
Clouds Few 1300 ft
Mostly Cloudy 8000 ft
Overcast 10000 ft
Dew Point 68 °F
Humidity 97%
Rainfall 0.20 in
Snow Depth Not available.
6:32 AM 7:52 PM
Waning Crescent, 5% visible
SPECI KSTP 300635Z AUTO 03004KT 7SM -TSRA FEW013 BKN080 OVC100 21/19 A3023 RMK AO2 LTG DSNT SE-W TSB09 P0018 T02060194
Pressure 30.23 in
Visibility 7.0 miles
Clouds Few 1300 ft
Mostly Cloudy 8000 ft
Overcast 10000 ft
Dew Point 68 °F
Humidity 97%
Rainfall 0.20 in
Snow Depth Not available.
6:32 AM 7:52 PM
Waning Crescent, 5% visible
SPECI KSTP 300635Z AUTO 03004KT 7SM -TSRA FEW013 BKN080 OVC100 21/19 A3023 RMK AO2 LTG DSNT SE-W TSB09 P0018 T02060194

10-Day Weather Forecast

Almanac

Astronomy

Aug. 30, 2016 Rise Set
Actual Time
Civil Twilight
Nautical Twilight
Astronomical Twilight
Moon
Length of Visible Light
Length of Day
Tomorrow will be .
, % of the Moon is Illuminated

Today's Extremes

State Highs State Lows

Community

WunderPhotos

Upload Photos

1,935,795 photos uploaded!

WunderBlog® & News

Nearby

Air Quality

  Air Quality AQ Index Pollutant
Not available.

Snow Depth

Station Depth Elevation

Earthquake Activity

City Distance Mag. Time & Date
Minimum magnitude displayed is 2.5.

Coastal Water Temperatures

Place Temperature

Stations

Nearby Weather Stations

Station Location Temp. Windchill Dew Point Humidity Wind Precip. Elev Updated Type
                   

Watches & Warnings

There are currently no watches in effect.